Stations météo

réclame
Mon MeteoGroup
Cerezo De Arriba, Espagne (8143): Température de l'air & dewpoint: 17.10.2018 07:00:00 - 23.10.2018 07:00:00 (CEST)Cerezo De Arriba, Espagne (8143): Vitesse du vent & gusts: 17.10.2018 07:00:00 - 23.10.2018 07:00:00 (CEST)Cerezo De Arriba, Espagne (8143): Direction du vent: 17.10.2018 07:00:00 - 23.10.2018 07:00:00 (CEST)Cerezo De Arriba, Espagne (8143): visibility: 17.10.2018 07:00:00 - 23.10.2018 07:00:00 (CEST)Cerezo De Arriba, Espagne (8143): Ensoleillement: 17.10.2018 07:00:00 - 23.10.2018 07:00:00 (CEST)Cerezo De Arriba, Espagne (8143): Quantités de précipitations: 17.10.2018 07:00:00 - 23.10.2018 07:00:00 (CEST)
Date & Time tt [°C] td [°C] ff [km/h] ff [knt] fx [km/h] fx [knt] dd vv [km] sd [min] rr [mm]
23.10.2018 07:00:00 7,8 -1,4 6 4 18 10 S 20 0 0,0
23.10.2018 06:00:00 7,2 -0,5 5 3 16 9 SSW 20 0 0,0
23.10.2018 05:00:00 7,7 0,0 7 4 37 20 S 17 0 0,0
23.10.2018 04:00:00 9,8 -1,0 27 14 35 19 S 20 0 0,0
23.10.2018 03:00:00 10,0 -2,0 19 10 24 13 S 18 0 0,0
23.10.2018 02:00:00 8,7 -1,2 8 4 20 11 S 18 0 -
23.10.2018 01:00:00 8,5 -2,7 15 8 31 17 SSE 16 0 0,0
23.10.2018 00:00:00 11,0 -9,9 23 12 35 19 SSE 20 0 0,0
22.10.2018 23:00:00 9,6 -5,1 22 12 31 17 SSE 20 0 0,0
22.10.2018 22:00:00 9,4 -5,1 22 12 27 15 SSE 20 0 0,0
22.10.2018 21:00:00 9,6 -3,6 21 11 27 15 SSE 20 0 0,0
22.10.2018 20:00:00 9,7 -2,2 23 12 33 18 SSE 20 0 -
22.10.2018 19:00:00 10,4 0,6 12 7 22 12 SE 20 0 0,0
22.10.2018 18:00:00 12,2 0,9 4 2 18 10 N 20 53 0,0
22.10.2018 17:00:00 14,4 -1,7 6 3 18 10 SW 20 60 0,0
22.10.2018 16:00:00 13,5 2,7 8 4 16 8 N 20 58 0,0
22.10.2018 15:00:00 13,0 6,8 3 2 16 9 E 20 47 0,0
22.10.2018 14:00:00 11,4 7,8 7 4 19 11 N 20 52 -
22.10.2018 13:00:00 11,9 7,4 6 3 18 10 NNE 20 59 0,0
22.10.2018 12:00:00 12,3 4,8 3 2 16 8 E 20 59 0,0
22.10.2018 11:00:00 7,8 -0,3 9 5 16 8 SE 20 0 0,0
22.10.2018 10:00:00 7,6 5,0 6 4 13 7 SSE 20 0 0,0
22.10.2018 09:00:00 7,8 5,3 13 7 17 9 SSE 20 0 0,0
22.10.2018 08:00:00 8,0 5,3 6 3 10 5 SSE 20 0 -
22.10.2018 07:00:00 8,2 5,5 7 4 14 7 S 20 0 0,0
22.10.2018 06:00:00 8,3 5,3 6 3 9 5 SSW 20 0 0,0
22.10.2018 05:00:00 8,1 5,1 5 3 16 9 SSW 20 0 0,0
22.10.2018 04:00:00 7,8 3,8 6 4 14 7 S 20 0 0,0
22.10.2018 03:00:00 8,7 3,6 7 4 13 7 S 20 0 0,0
22.10.2018 02:00:00 9,7 3,6 7 4 18 10 ESE 20 0 -
22.10.2018 01:00:00 8,7 3,4 15 8 22 12 SSE 20 0 0,0
22.10.2018 00:00:00 9,8 3,2 18 10 35 19 SSE 20 0 0,0
21.10.2018 23:00:00 10,7 5,5 23 12 28 15 SSE 20 0 0,0
21.10.2018 22:00:00 10,0 5,9 17 9 26 14 SSE 20 0 0,0
21.10.2018 21:00:00 9,5 5,0 10 6 16 9 SE 20 0 0,0
21.10.2018 20:00:00 9,3 5,5 11 6 13 7 SE 20 0 -
21.10.2018 19:00:00 10,8 5,8 5 3 9 5 ESE 20 0 0,0
21.10.2018 18:00:00 13,0 5,9 4 2 15 8 WSW 20 50 0,0
21.10.2018 17:00:00 14,1 5,9 6 4 24 13 N 20 58 0,0
21.10.2018 16:00:00 14,5 5,3 10 6 25 14 WSW 20 60 0,0
21.10.2018 15:00:00 14,3 6,4 10 5 21 11 N 20 60 0,0
21.10.2018 14:00:00 13,7 6,2 9 5 38 21 N 20 60 -
21.10.2018 13:00:00 13,2 5,8 16 9 32 18 SSW 20 60 0,0
21.10.2018 12:00:00 12,5 5,6 7 4 39 21 N 20 54 0,0
21.10.2018 11:00:00 11,0 4,8 23 13 47 25 S 20 0 0,0
21.10.2018 10:00:00 9,9 4,8 20 11 57 31 S 20 0 0,0
21.10.2018 09:00:00 9,8 5,1 13 7 63 34 SSE 20 0 0,0
21.10.2018 08:00:00 9,8 4,8 16 8 59 32 SE 20 0 -
21.10.2018 07:00:00 8,8 5,3 41 22 66 36 S 17 0 0,2
21.10.2018 06:00:00 9,0 4,6 34 18 65 35 S 20 0 0,0
21.10.2018 05:00:00 8,6 6,1 30 16 62 34 S 20 0 0,0
21.10.2018 04:00:00 9,3 5,5 37 20 61 33 S 20 0 0,0
21.10.2018 03:00:00 9,3 6,1 27 15 56 31 S 20 0 0,0
21.10.2018 02:00:00 9,5 6,2 32 18 66 36 S 20 0 -
21.10.2018 01:00:00 9,3 6,1 22 12 51 28 SSW 20 0 0,0
21.10.2018 00:00:00 9,4 6,7 16 9 70 38 WSW 20 0 0,0
20.10.2018 23:00:00 9,2 7,0 19 11 59 32 SW 20 0 0,0
20.10.2018 22:00:00 9,1 7,3 14 7 63 34 WSW 20 0 0,0
20.10.2018 21:00:00 9,3 7,1 23 13 72 39 SSW 20 0 0,0
20.10.2018 20:00:00 9,1 6,8 27 15 61 33 S 20 0 -
20.10.2018 19:00:00 9,3 7,1 14 7 49 26 SSE 20 0 0,0
20.10.2018 18:00:00 9,3 7,1 11 6 59 32 WSW 20 0 0,2
20.10.2018 17:00:00 9,9 6,8 19 11 50 27 N 20 2 0,0
20.10.2018 16:00:00 9,6 7,0 11 6 40 22 NNW 20 1 0,0
20.10.2018 15:00:00 9,5 7,0 11 6 36 20 NNW 20 1 0,0
20.10.2018 14:00:00 9,8 7,0 13 7 72 39 NW 20 3 -
20.10.2018 13:00:00 8,9 6,4 22 12 67 36 SSW 20 3 0,0
20.10.2018 12:00:00 8,7 6,1 12 7 53 28 WNW 20 6 0,0
20.10.2018 11:00:00 8,0 5,9 17 9 55 30 SW 20 0 0,0
20.10.2018 10:00:00 7,5 5,9 27 14 63 34 SSW 20 0 0,0
20.10.2018 09:00:00 7,4 5,6 31 17 79 43 SSW 20 0 0,0
20.10.2018 08:00:00 7,4 5,9 21 12 68 37 SW 20 0 -
20.10.2018 07:00:00 7,4 6,4 24 13 66 36 SSW 20 0 1,8
20.10.2018 06:00:00 7,5 6,4 19 11 78 42 SW 3,2 0 0,6
20.10.2018 05:00:00 7,6 6,2 21 11 74 40 SSW 20 0 0,0
20.10.2018 04:00:00 7,5 5,9 16 9 46 25 SW 20 0 0,2
20.10.2018 03:00:00 7,7 6,1 9 5 44 24 NE 16 0 0,8
20.10.2018 02:00:00 7,7 6,1 22 12 71 38 S 11 0 -
20.10.2018 01:00:00 7,6 6,7 14 8 68 37 N 12 0 2,2
20.10.2018 00:00:00 7,6 6,7 11 6 42 23 W 8 0 4,4
19.10.2018 23:00:00 7,4 6,2 16 8 56 31 WNW 7 0 1,6
19.10.2018 22:00:00 7,3 6,4 15 8 71 38 WNW 12 0 0,0
19.10.2018 21:00:00 7,3 6,5 15 8 79 42 WNW 20 0 0,6
19.10.2018 20:00:00 - - - - - - - - - -
19.10.2018 19:00:00 8,2 7,7 21 11 61 33 NNE 2,5 0 0,6
19.10.2018 18:00:00 8,1 7,6 15 8 50 27 NNE 0,3 0 1,0
19.10.2018 17:00:00 7,9 7,3 15 8 59 32 ESE 10 0 1,0
19.10.2018 16:00:00 7,8 7,1 15 8 42 23 SE 9 0 0,4
19.10.2018 15:00:00 7,7 7,1 16 9 47 25 ESE 1,4 0 0,4
19.10.2018 14:00:00 7,8 7,1 19 10 53 29 NNE 6 0 -
19.10.2018 13:00:00 7,5 7,0 20 11 49 27 NNE 10 0 0,8
19.10.2018 12:00:00 7,6 7,0 19 10 80 43 ENE 0,2 0 1,2
19.10.2018 11:00:00 7,7 7,0 25 14 61 33 NNE 4,6 0 1,8
19.10.2018 10:00:00 7,5 6,8 20 11 59 32 NNE 6 0 1,0
19.10.2018 09:00:00 7,6 7,0 13 7 58 31 NNE 7 0 1,6
19.10.2018 08:00:00 7,6 7,1 17 9 68 37 E 0,2 0 -
19.10.2018 07:00:00 7,5 7,0 14 7 60 33 NNE 0,2 0 0,2
19.10.2018 06:00:00 7,5 7,0 18 10 63 34 ENE 0,3 0 0,4
19.10.2018 05:00:00 7,5 7,0 18 10 81 44 ENE 3,2 0 0,2
19.10.2018 04:00:00 7,7 7,1 31 17 74 40 N 10 0 0,6
19.10.2018 03:00:00 7,6 7,0 12 7 51 28 N 9 0 0,6
19.10.2018 02:00:00 7,5 6,5 14 8 49 27 N 19 0 -
19.10.2018 01:00:00 7,4 6,7 28 15 59 32 N 6 0 0,4
19.10.2018 00:00:00 7,3 6,7 25 13 58 32 NNE 10 0 0,6
18.10.2018 23:00:00 7,2 6,4 19 11 53 29 N 3,4 0 1,0
18.10.2018 22:00:00 7,4 6,5 22 12 42 23 NNE 4,3 0 0,4
18.10.2018 21:00:00 8,1 6,2 18 10 41 22 NNE 20 0 0,0
18.10.2018 20:00:00 8,3 5,9 12 6 35 19 NE 20 0 -
18.10.2018 19:00:00 8,6 5,5 16 9 36 20 NE 20 0 0,0
18.10.2018 18:00:00 9,1 5,6 13 7 33 18 E 20 0 0,0
18.10.2018 17:00:00 9,0 5,8 13 7 35 19 E 20 4 0,0
18.10.2018 16:00:00 10,6 5,9 11 6 32 17 NE 20 10 0,0
18.10.2018 15:00:00 9,2 5,6 11 6 29 16 ESE 20 0 0,0
18.10.2018 14:00:00 9,1 5,5 6 4 34 18 S 20 1 -
18.10.2018 13:00:00 8,8 4,6 14 8 49 26 NE 20 28 0,0
18.10.2018 12:00:00 8,6 3,6 17 9 42 23 E 20 25 0,0
18.10.2018 11:00:00 7,8 3,2 13 7 47 26 E 20 0 0,0
18.10.2018 10:00:00 7,9 3,8 14 7 55 30 NE 20 0 0,0
18.10.2018 09:00:00 7,9 3,2 15 8 42 23 SSW 20 0 0,0
18.10.2018 08:00:00 7,6 3,6 16 9 43 23 S 20 0 -
18.10.2018 07:00:00 7,7 3,9 21 11 49 26 SSE 20 0 0,0
18.10.2018 06:00:00 7,5 5,1 12 6 32 17 SSE 20 0 0,0
18.10.2018 05:00:00 7,6 5,3 15 8 34 19 S 20 0 0,0
18.10.2018 04:00:00 7,6 5,1 14 7 35 19 SSE 20 0 0,0
18.10.2018 03:00:00 7,5 5,0 11 6 26 14 S 20 0 0,0
18.10.2018 02:00:00 6,1 4,6 4 2 10 5 SSE 19 0 -
18.10.2018 01:00:00 6,7 5,3 6 3 19 11 E 8 0 0,0
18.10.2018 00:00:00 8,4 4,8 9 5 24 13 SSE 20 0 0,0
17.10.2018 23:00:00 8,5 5,3 22 12 30 16 S 20 0 0,0
17.10.2018 22:00:00 8,7 4,6 21 11 38 21 SSE 20 0 0,0
17.10.2018 21:00:00 8,5 4,3 29 16 41 22 S 20 0 0,0
17.10.2018 20:00:00 8,8 4,5 24 13 35 19 S 20 0 -
17.10.2018 19:00:00 9,4 4,8 23 13 37 20 S 20 5 0,0
17.10.2018 18:00:00 10,6 5,6 18 10 32 18 S 20 55 0,0
17.10.2018 17:00:00 11,0 5,8 5 3 14 7 W 20 5 0,0
17.10.2018 16:00:00 10,1 6,4 4 2 11 6 W 20 2 0,0
17.10.2018 15:00:00 9,7 6,1 4 2 13 7 W 20 0 0,0
17.10.2018 14:00:00 9,7 5,5 9 5 16 8 S 20 0 -
17.10.2018 13:00:00 9,6 5,6 6 4 13 7 W 20 14 0,0
17.10.2018 12:00:00 11,4 6,4 3 1 10 6 SSE 20 55 0,0
17.10.2018 11:00:00 7,8 5,1 9 5 16 8 SSW 20 7 0,0
17.10.2018 10:00:00 6,9 4,5 9 5 16 9 SSW 20 0 0,0
17.10.2018 09:00:00 6,6 4,6 8 4 16 8 S 20 0 0,0
17.10.2018 08:00:00 6,5 4,1 8 4 16 9 SW 20 0 -
17.10.2018 07:00:00 6,3 3,9 11 6 16 9 SSW 20 0 0,0

tt = Température de l'air
td = dewpoint
ff = Vitesse du vent
fx = gusts
dd = Direction du vent
vv = visibility
sd = Ensoleillement
rr = Quantités de précipitations

stations d'obs. à proximité